createdAt,value
2022-08-19T00:01:57.301Z,10.13
2022-08-19T00:04:30.055Z,10.50
2022-08-19T00:06:58.316Z,9.40
2022-08-19T00:09:27.761Z,10.10
2022-08-19T00:11:57.795Z,9.95
2022-08-19T00:14:32.900Z,10.88
2022-08-19T00:17:03.895Z,11.38
2022-08-19T00:19:33.262Z,10.23
2022-08-19T00:22:02.120Z,11.10
2022-08-19T00:24:30.725Z,10.57
2022-08-19T00:27:04.949Z,10.40
2022-08-19T00:29:52.514Z,10.73
2022-08-19T00:32:21.336Z,10.50
2022-08-19T00:34:49.865Z,11.52
2022-08-19T00:37:18.385Z,11.52
2022-08-19T00:39:49.144Z,10.68
2022-08-19T00:42:18.035Z,10.75
2022-08-19T00:44:46.151Z,11.18
2022-08-19T00:47:16.248Z,11.30
2022-08-19T00:49:52.074Z,10.98
2022-08-19T00:52:24.746Z,11.10
2022-08-19T00:54:54.329Z,10.77
2022-08-19T00:57:32.108Z,11.02
2022-08-19T01:00:03.277Z,11.52
2022-08-19T01:02:34.331Z,11.38
2022-08-19T01:05:05.328Z,11.30
2022-08-19T01:07:35.839Z,11.48
2022-08-19T01:10:09.834Z,10.65
2022-08-19T01:12:38.927Z,11.10
2022-08-19T01:15:08.817Z,11.30
2022-08-19T01:17:41.629Z,12.07
2022-08-19T01:20:13.269Z,12.85
2022-08-19T01:22:47.842Z,12.18
2022-08-19T01:25:17.400Z,12.43
2022-08-19T01:27:50.053Z,12.80
2022-08-19T01:30:34.197Z,12.85
2022-08-19T01:33:03.317Z,12.10
2022-08-19T01:35:33.255Z,13.18
2022-08-19T01:38:09.411Z,12.55
2022-08-19T01:40:40.993Z,13.45
2022-08-19T01:43:09.851Z,13.15
2022-08-19T01:45:41.196Z,12.23
2022-08-19T01:48:10.313Z,13.25
2022-08-19T01:50:39.550Z,12.60
2022-08-19T01:53:13.726Z,12.98
2022-08-19T01:55:45.051Z,12.73
2022-08-19T01:58:16.409Z,12.85
2022-08-19T02:00:46.319Z,13.13
2022-08-19T02:03:15.598Z,12.75
2022-08-19T02:05:44.534Z,13.40
2022-08-19T02:08:14.807Z,13.48
2022-08-19T02:10:45.346Z,14.35
2022-08-19T02:13:14.805Z,13.23
2022-08-19T02:15:43.637Z,13.73
2022-08-19T02:18:12.306Z,13.18
2022-08-19T02:20:42.475Z,13.65
2022-08-19T02:23:13.311Z,13.48
2022-08-19T02:25:45.380Z,13.38
2022-08-19T02:28:18.353Z,13.77
2022-08-19T02:30:48.778Z,14.05
2022-08-19T02:33:17.390Z,13.82
2022-08-19T02:35:46.329Z,13.10
2022-08-19T02:38:30.358Z,12.60
2022-08-19T02:41:02.251Z,12.95
2022-08-19T02:43:33.809Z,12.93
2022-08-19T02:46:03.537Z,12.45
2022-08-19T02:48:32.922Z,13.80
2022-08-19T02:51:01.407Z,13.80
2022-08-19T02:53:30.350Z,12.35
2022-08-19T02:56:00.442Z,12.23
2022-08-19T02:58:28.785Z,12.02
2022-08-19T03:00:59.443Z,11.45
2022-08-19T03:03:28.170Z,12.55
2022-08-19T03:06:10.560Z,12.18
2022-08-19T03:08:39.736Z,11.75
2022-08-19T03:11:16.022Z,13.10
2022-08-19T03:13:44.809Z,12.05
2022-08-19T03:16:14.907Z,12.15
2022-08-19T03:18:44.007Z,12.45
2022-08-19T03:21:17.381Z,13.18
2022-08-19T03:23:46.099Z,13.10
2022-08-19T03:26:17.238Z,13.27
2022-08-19T03:28:51.124Z,13.27
2022-08-19T03:31:43.806Z,13.60
2022-08-19T03:34:12.683Z,13.77
2022-08-19T03:36:42.964Z,15.15
2022-08-19T03:39:13.015Z,13.77
2022-08-19T03:41:48.271Z,14.05
2022-08-19T03:44:19.044Z,14.55
2022-08-19T03:46:50.069Z,13.68
2022-08-19T03:49:18.716Z,14.00
2022-08-19T03:51:50.284Z,14.27
2022-08-19T03:54:20.473Z,15.35
2022-08-19T03:56:51.883Z,14.77
2022-08-19T03:59:26.092Z,14.32
2022-08-19T04:01:55.541Z,13.10
2022-08-19T04:04:24.062Z,14.55
2022-08-19T04:06:53.048Z,14.55
2022-08-19T04:09:22.863Z,14.95
2022-08-19T04:11:55.731Z,13.75
2022-08-19T04:14:26.503Z,13.25
2022-08-19T04:16:54.703Z,14.77
2022-08-19T04:19:22.899Z,15.25
2022-08-19T04:21:53.640Z,14.57
2022-08-19T04:24:23.176Z,15.48
2022-08-19T04:26:53.425Z,15.15
2022-08-19T04:29:25.922Z,15.88
2022-08-19T04:31:56.180Z,14.57
2022-08-19T04:34:27.381Z,15.45
2022-08-19T04:36:58.538Z,14.27
2022-08-19T04:39:49.691Z,14.55
2022-08-19T04:42:38.038Z,14.98
2022-08-19T04:45:09.224Z,14.85
2022-08-19T04:47:47.638Z,14.63
2022-08-19T04:50:21.678Z,15.60
2022-08-19T04:52:52.595Z,15.07
2022-08-19T04:55:21.456Z,14.20
2022-08-19T04:57:51.744Z,14.80
2022-08-19T05:00:20.548Z,14.07
2022-08-19T05:02:50.356Z,13.85
2022-08-19T05:05:18.732Z,13.35
2022-08-19T05:07:47.319Z,13.35
2022-08-19T05:10:15.382Z,13.32
2022-08-19T05:12:43.900Z,13.80
2022-08-19T05:15:13.657Z,13.23
2022-08-19T05:18:03.681Z,14.80
2022-08-19T05:20:49.186Z,14.02
2022-08-19T05:23:22.096Z,14.82
2022-08-19T05:25:51.694Z,14.32
2022-08-19T05:28:20.499Z,15.35
2022-08-19T05:30:52.307Z,16.70
2022-08-19T05:33:20.770Z,15.02
2022-08-19T05:35:49.781Z,13.80
2022-08-19T05:38:18.478Z,13.45
2022-08-19T05:40:50.437Z,13.15
2022-08-19T05:43:18.612Z,13.07
2022-08-19T05:45:47.153Z,13.93
2022-08-19T05:48:18.865Z,14.18
2022-08-19T05:50:47.779Z,13.68
2022-08-19T05:53:17.800Z,14.82
2022-08-19T05:55:45.926Z,14.85
2022-08-19T05:58:14.267Z,14.48
2022-08-19T06:00:45.562Z,14.85
2022-08-19T06:03:13.659Z,13.95
2022-08-19T06:05:51.478Z,13.80
2022-08-19T06:08:34.178Z,13.77
2022-08-19T06:11:16.727Z,14.02
2022-08-19T06:13:46.514Z,15.70
2022-08-19T06:16:20.425Z,13.70
2022-08-19T06:18:48.517Z,15.05
2022-08-19T06:21:18.439Z,13.30
2022-08-19T06:23:48.787Z,14.40
2022-08-19T06:26:17.505Z,13.75
2022-08-19T06:28:47.727Z,13.40
2022-08-19T06:31:17.175Z,11.75
2022-08-19T06:33:46.635Z,12.15
2022-08-19T06:36:21.931Z,11.52
2022-08-19T06:38:54.422Z,12.48
2022-08-19T06:41:23.098Z,11.60
2022-08-19T06:43:53.971Z,11.75
2022-08-19T06:46:23.254Z,12.98
2022-08-19T06:48:54.355Z,12.70
2022-08-19T06:51:26.423Z,12.95
2022-08-19T06:54:00.444Z,12.50
2022-08-19T06:56:34.733Z,12.85
2022-08-19T06:59:04.071Z,12.30
2022-08-19T07:01:32.572Z,12.43
2022-08-19T07:04:01.504Z,12.65
2022-08-19T07:06:43.469Z,12.60
2022-08-19T07:09:18.462Z,12.65
2022-08-19T07:11:49.043Z,11.95
2022-08-19T07:14:20.045Z,11.88
2022-08-19T07:16:50.497Z,12.77
2022-08-19T07:19:20.045Z,11.73
2022-08-19T07:21:52.059Z,11.75
2022-08-19T07:24:21.918Z,10.05
2022-08-19T07:26:51.886Z,10.25
2022-08-19T07:29:25.569Z,10.60
2022-08-19T07:31:57.530Z,11.25
2022-08-19T07:34:29.299Z,10.45
2022-08-19T07:36:59.589Z,10.23
2022-08-19T07:39:34.680Z,11.38
2022-08-19T07:42:07.293Z,10.88
2022-08-19T07:44:36.530Z,10.98
2022-08-19T07:47:06.506Z,11.38
2022-08-19T07:49:35.333Z,11.13
2022-08-19T07:52:08.398Z,11.55
2022-08-19T07:54:39.763Z,11.85
2022-08-19T07:57:09.792Z,9.95
2022-08-19T07:59:38.174Z,11.07
2022-08-19T08:02:07.086Z,10.45
2022-08-19T08:04:52.752Z,11.13
2022-08-19T08:07:39.924Z,10.15
2022-08-19T08:10:21.306Z,11.05
2022-08-19T08:13:08.793Z,9.88
2022-08-19T08:15:42.690Z,10.13
2022-08-19T08:18:12.148Z,10.35
2022-08-19T08:20:41.556Z,11.07
2022-08-19T08:23:27.529Z,9.15
2022-08-19T08:25:57.931Z,10.75
2022-08-19T08:28:29.794Z,10.93
2022-08-19T08:30:59.677Z,9.68
2022-08-19T08:33:33.294Z,10.90
2022-08-19T08:36:04.252Z,9.82
2022-08-19T08:38:42.708Z,10.23
2022-08-19T08:41:20.145Z,9.98
2022-08-19T08:43:52.426Z,10.38
2022-08-19T08:46:31.514Z,10.25
2022-08-19T08:49:08.809Z,9.75
2022-08-19T08:54:14.656Z,9.55
2022-08-19T08:56:44.954Z,10.80
2022-08-19T08:59:22.858Z,10.05
2022-08-19T09:01:51.471Z,9.50
2022-08-19T09:04:19.942Z,9.85
2022-08-19T09:06:57.352Z,10.13
2022-08-19T09:09:33.388Z,9.73
2022-08-19T09:12:11.678Z,10.02
2022-08-19T09:14:50.862Z,9.45
2022-08-19T09:17:22.319Z,10.23
2022-08-19T09:19:56.709Z,10.40
2022-08-19T09:22:27.352Z,9.73
2022-08-19T09:24:57.570Z,10.00
2022-08-19T09:27:41.979Z,10.10
2022-08-19T09:30:15.785Z,8.77
2022-08-19T09:32:44.428Z,9.65
2022-08-19T09:35:14.266Z,9.27
2022-08-19T09:37:43.717Z,10.15
2022-08-19T09:40:15.557Z,8.68
2022-08-19T09:42:50.240Z,9.02
2022-08-19T09:45:23.249Z,9.68
2022-08-19T09:47:55.116Z,9.35
2022-08-19T09:50:25.179Z,9.13
2022-08-19T09:52:58.449Z,9.32
2022-08-19T09:55:31.136Z,8.55
2022-08-19T09:58:02.266Z,9.90
2022-08-19T10:00:31.743Z,8.68
2022-08-19T10:03:01.019Z,8.43
2022-08-19T10:05:48.585Z,9.40
2022-08-19T10:08:18.684Z,9.43
2022-08-19T10:10:52.016Z,9.27
2022-08-19T10:13:26.489Z,9.50
2022-08-19T10:15:57.305Z,8.43
2022-08-19T10:18:26.837Z,8.65
2022-08-19T10:21:04.707Z,8.57
2022-08-19T10:23:33.597Z,7.50
2022-08-19T10:26:05.124Z,8.15
2022-08-19T10:28:33.719Z,7.57
2022-08-19T10:31:07.836Z,7.40
2022-08-19T10:33:38.701Z,7.90
2022-08-19T10:36:23.554Z,7.80
2022-08-19T10:38:56.831Z,8.25
2022-08-19T10:41:28.413Z,8.13
2022-08-19T10:44:02.391Z,7.57
2022-08-19T10:46:33.998Z,7.70
2022-08-19T10:49:03.526Z,7.18
2022-08-19T10:51:50.028Z,7.32
2022-08-19T10:54:28.777Z,7.97
2022-08-19T10:57:01.034Z,7.50
2022-08-19T10:59:35.806Z,7.55
2022-08-19T11:02:07.427Z,6.82
2022-08-19T11:04:35.920Z,8.38
2022-08-19T11:07:04.743Z,7.50
2022-08-19T11:09:34.653Z,7.90
2022-08-19T11:12:04.830Z,8.80
2022-08-19T11:14:34.568Z,8.00
2022-08-19T11:17:02.789Z,7.72
2022-08-19T11:19:31.747Z,7.35
2022-08-19T11:22:02.358Z,7.55
2022-08-19T11:24:34.156Z,7.75
2022-08-19T11:27:10.546Z,6.78
2022-08-19T11:29:40.813Z,7.55
2022-08-19T11:32:12.967Z,7.78
2022-08-19T11:34:41.613Z,7.03
2022-08-19T11:37:10.428Z,7.80
2022-08-19T11:39:39.453Z,6.93
2022-08-19T11:42:23.456Z,7.32
2022-08-19T11:44:52.076Z,7.50
2022-08-19T11:47:20.344Z,7.03
2022-08-19T11:49:48.625Z,7.82
2022-08-19T11:52:16.863Z,7.32
2022-08-19T11:54:44.917Z,6.47
2022-08-19T11:57:16.309Z,17.23
2022-08-19T11:59:44.584Z,17.92
2022-08-19T12:02:12.802Z,17.88
2022-08-19T12:04:41.335Z,15.13
2022-08-19T12:07:09.871Z,12.27
2022-08-19T12:09:42.169Z,11.40
2022-08-19T12:12:11.096Z,8.63
2022-08-19T12:14:40.976Z,8.88
2022-08-19T12:17:10.125Z,8.02
2022-08-19T12:19:39.218Z,7.22
2022-08-19T12:22:08.597Z,6.93
2022-08-19T12:24:36.843Z,6.57
2022-08-19T12:27:05.567Z,6.25
2022-08-19T12:29:42.905Z,6.57
2022-08-19T12:32:12.141Z,6.03
2022-08-19T12:34:41.490Z,5.88
2022-08-19T12:37:10.577Z,6.25
2022-08-19T12:39:41.418Z,7.63
2022-08-19T12:42:09.802Z,7.13
2022-08-19T12:44:39.023Z,8.73
2022-08-19T12:47:13.044Z,9.50
2022-08-19T12:49:54.064Z,9.90
2022-08-19T12:52:25.919Z,9.10
2022-08-19T12:54:55.645Z,9.73
2022-08-19T12:57:32.123Z,11.45
2022-08-19T13:00:05.439Z,10.55
2022-08-19T13:02:38.475Z,10.88
2022-08-19T13:05:10.720Z,11.93
2022-08-19T13:07:41.563Z,12.02
2022-08-19T13:10:13.240Z,12.63
2022-08-19T13:12:43.298Z,12.27
2022-08-19T13:15:12.457Z,13.23
2022-08-19T13:17:42.438Z,12.30
2022-08-19T13:20:12.947Z,11.45
2022-08-19T13:22:41.104Z,12.95
2022-08-19T13:25:10.967Z,12.73
2022-08-19T13:27:39.799Z,12.57
2022-08-19T13:30:28.274Z,13.43
2022-08-19T13:33:12.866Z,14.00
2022-08-19T13:35:46.460Z,11.57
2022-08-19T13:38:16.333Z,12.02
2022-08-19T13:40:44.927Z,12.88
2022-08-19T13:43:17.882Z,12.25
2022-08-19T13:45:54.060Z,12.68
2022-08-19T13:48:24.578Z,13.18
2022-08-19T13:50:53.181Z,12.45
2022-08-19T13:53:21.267Z,12.13
2022-08-19T13:55:51.855Z,19.23
2022-08-19T13:58:20.284Z,22.98
2022-08-19T14:00:50.010Z,16.83
2022-08-19T14:03:18.099Z,14.77
2022-08-19T14:05:48.785Z,13.05
2022-08-19T14:08:16.846Z,12.77
2022-08-19T14:10:46.114Z,12.80
2022-08-19T14:13:17.368Z,11.40
2022-08-19T14:15:46.315Z,11.68
2022-08-19T14:18:14.412Z,11.95
2022-08-19T14:20:43.362Z,10.98
2022-08-19T14:23:14.806Z,10.38
2022-08-19T14:25:43.205Z,9.20
2022-08-19T14:28:11.845Z,8.88
2022-08-19T14:30:40.145Z,9.40
2022-08-19T14:33:09.810Z,8.93
2022-08-19T14:35:39.190Z,7.95
2022-08-19T14:38:09.169Z,8.00
2022-08-19T14:40:40.732Z,7.55
2022-08-19T14:43:09.235Z,7.80
2022-08-19T14:45:40.817Z,6.97
2022-08-19T14:48:19.064Z,7.20
2022-08-19T14:50:47.439Z,7.10
2022-08-19T14:53:15.602Z,6.75
2022-08-19T14:55:46.485Z,6.68
2022-08-19T14:58:29.733Z,7.15
2022-08-19T15:01:00.300Z,6.95
2022-08-19T15:03:29.283Z,7.28
2022-08-19T15:05:59.050Z,7.00
2022-08-19T15:08:27.945Z,6.72
2022-08-19T15:10:58.388Z,7.60
2022-08-19T15:13:28.730Z,7.25
2022-08-19T15:15:58.073Z,7.63
2022-08-19T15:18:26.946Z,7.63
2022-08-19T15:20:56.006Z,7.40
2022-08-19T15:23:24.940Z,7.90
2022-08-19T15:25:56.667Z,7.68
2022-08-19T15:28:27.985Z,8.18
2022-08-19T15:30:56.118Z,8.30
2022-08-19T15:33:24.183Z,7.20
2022-08-19T15:35:53.109Z,8.52
2022-08-19T15:38:24.454Z,7.00
2022-08-19T15:40:54.790Z,7.30
2022-08-19T15:43:23.740Z,7.47
2022-08-19T15:45:53.178Z,6.65
2022-08-19T15:48:21.682Z,6.20
2022-08-19T15:50:49.755Z,6.53
2022-08-19T15:53:18.296Z,6.38
2022-08-19T15:55:48.618Z,6.78
2022-08-19T15:58:35.122Z,6.43
2022-08-19T16:01:28.982Z,6.50
2022-08-19T16:04:16.824Z,7.53
2022-08-19T16:06:49.482Z,6.53
2022-08-19T16:09:23.651Z,6.97
2022-08-19T16:11:57.136Z,9.35
2022-08-19T16:14:29.676Z,7.03
2022-08-19T16:16:59.615Z,6.75
2022-08-19T16:19:28.087Z,6.88
2022-08-19T16:21:58.181Z,11.18
2022-08-19T16:24:28.490Z,6.53
2022-08-19T16:26:57.359Z,6.80
2022-08-19T16:29:34.244Z,7.38
2022-08-19T16:32:06.088Z,8.35
2022-08-19T16:34:34.669Z,7.80
2022-08-19T16:37:02.992Z,7.57
2022-08-19T16:39:31.642Z,8.70
2022-08-19T16:42:00.856Z,8.88
2022-08-19T16:44:30.182Z,21.10
2022-08-19T16:46:59.695Z,15.82
2022-08-19T16:49:53.709Z,24.00
2022-08-19T16:52:20.061Z,22.85
2022-08-19T16:54:49.404Z,19.55
2022-08-19T16:57:18.491Z,12.65
2022-08-19T16:59:49.324Z,14.02
2022-08-19T17:02:18.415Z,14.65
2022-08-19T17:04:58.339Z,14.93
2022-08-19T17:07:28.252Z,13.32
2022-08-19T17:09:56.743Z,18.08
2022-08-19T17:12:29.022Z,11.75
2022-08-19T17:14:59.361Z,8.05
2022-08-19T17:17:29.356Z,9.55
2022-08-19T17:19:59.378Z,8.60
2022-08-19T17:22:28.087Z,8.88
2022-08-19T17:24:58.315Z,20.00
2022-08-19T17:27:31.990Z,10.75
2022-08-19T17:30:01.686Z,9.10
2022-08-19T17:32:29.794Z,10.88
2022-08-19T17:34:59.247Z,11.55
2022-08-19T17:37:28.616Z,9.57
2022-08-19T17:39:56.833Z,10.95
2022-08-19T17:42:25.454Z,11.88
2022-08-19T17:44:53.639Z,9.68
2022-08-19T17:47:22.042Z,9.25
2022-08-19T17:49:50.564Z,9.45
2022-08-19T17:52:20.454Z,8.40
2022-08-19T17:54:49.054Z,8.77
2022-08-19T17:57:17.643Z,10.32
2022-08-19T17:59:46.500Z,12.13
2022-08-19T18:02:15.465Z,10.20
2022-08-19T18:04:48.816Z,8.52
2022-08-19T18:07:21.705Z,10.30
2022-08-19T18:09:52.896Z,9.80
2022-08-19T18:12:24.572Z,9.30
2022-08-19T18:14:53.198Z,8.85
2022-08-19T18:17:23.308Z,9.27
2022-08-19T18:19:51.944Z,10.20
2022-08-19T18:22:27.520Z,9.50
2022-08-19T18:24:57.717Z,9.05
2022-08-19T18:27:26.471Z,8.88
2022-08-19T18:29:59.569Z,10.00
2022-08-19T18:32:31.395Z,9.75
2022-08-19T18:35:02.794Z,12.20
2022-08-19T18:37:31.211Z,13.68
2022-08-19T18:40:18.370Z,13.23
2022-08-19T18:43:05.165Z,12.32
2022-08-19T18:45:51.022Z,12.27
2022-08-19T18:48:37.007Z,14.98
2022-08-19T18:51:05.231Z,11.05
2022-08-19T18:53:37.709Z,17.23
2022-08-19T18:56:08.113Z,9.88
2022-08-19T18:58:38.937Z,13.07
2022-08-19T19:01:11.614Z,10.60
2022-08-19T19:03:42.428Z,8.77
2022-08-19T19:06:10.622Z,10.38
2022-08-19T19:08:41.337Z,9.10
2022-08-19T19:11:11.173Z,12.90
2022-08-19T19:13:41.349Z,11.35
2022-08-19T19:16:11.633Z,16.90
2022-08-19T19:18:40.486Z,9.13
2022-08-19T19:21:09.286Z,25.42
2022-08-19T19:23:40.633Z,7.53
2022-08-19T19:26:10.841Z,8.65
2022-08-19T19:28:44.093Z,8.82
2022-08-19T19:31:14.624Z,9.98
2022-08-19T19:33:44.562Z,9.80
2022-08-19T19:36:14.158Z,10.23
2022-08-19T19:38:48.269Z,9.00
2022-08-19T19:41:23.462Z,9.65
2022-08-19T19:44:10.055Z,10.68
2022-08-19T19:46:42.686Z,9.55
2022-08-19T19:49:11.818Z,9.85
2022-08-19T19:51:41.187Z,9.27
2022-08-19T19:54:14.047Z,10.48
2022-08-19T19:56:45.509Z,10.25
2022-08-19T19:59:14.262Z,11.57
2022-08-19T20:01:46.279Z,10.13
2022-08-19T20:04:16.368Z,10.02
2022-08-19T20:06:44.726Z,10.57
2022-08-19T20:09:16.322Z,10.43
2022-08-19T20:11:53.657Z,11.25
2022-08-19T20:14:26.797Z,10.73
2022-08-19T20:16:57.177Z,10.85
2022-08-19T20:19:28.250Z,10.57
2022-08-19T20:21:57.890Z,11.95
2022-08-19T20:24:32.872Z,10.15
2022-08-19T20:27:03.368Z,11.55
2022-08-19T20:29:39.168Z,11.25
2022-08-19T20:32:11.242Z,10.60
2022-08-19T20:34:40.074Z,11.13
2022-08-19T20:37:09.429Z,11.50
2022-08-19T20:39:38.491Z,10.60
2022-08-19T20:42:08.324Z,10.43
2022-08-19T20:44:37.092Z,10.65
2022-08-19T20:47:05.337Z,10.73
2022-08-19T20:49:34.346Z,10.27
2022-08-19T20:52:03.751Z,10.98
2022-08-19T20:54:32.212Z,11.02
2022-08-19T20:57:01.100Z,10.55
2022-08-19T20:59:30.815Z,10.85
2022-08-19T21:01:59.350Z,11.25
2022-08-19T21:04:27.512Z,10.98
2022-08-19T21:06:56.534Z,12.07
2022-08-19T21:09:24.680Z,11.60
2022-08-19T21:11:53.699Z,12.23
2022-08-19T21:14:23.206Z,11.15
2022-08-19T21:16:52.676Z,11.38
2022-08-19T21:19:24.142Z,10.32
2022-08-19T21:21:52.502Z,11.82
2022-08-19T21:24:20.619Z,11.00
2022-08-19T21:26:51.354Z,10.38
2022-08-19T21:29:19.965Z,11.15
2022-08-19T21:31:49.050Z,11.98
2022-08-19T21:34:19.055Z,11.43
2022-08-19T21:36:47.153Z,10.82
2022-08-19T21:39:15.709Z,11.15
2022-08-19T21:41:43.964Z,11.48
2022-08-19T21:44:12.689Z,11.57
2022-08-19T21:46:41.360Z,10.00
2022-08-19T21:49:09.670Z,10.40
2022-08-19T21:51:39.179Z,9.43
2022-08-19T21:54:07.477Z,10.27
2022-08-19T21:56:42.994Z,10.80
2022-08-19T21:59:11.883Z,10.25
2022-08-19T22:01:40.022Z,9.80
2022-08-19T22:04:08.614Z,10.65
2022-08-19T22:06:38.373Z,10.00
2022-08-19T22:09:06.958Z,10.13
2022-08-19T22:11:35.210Z,10.40
2022-08-19T22:14:03.923Z,9.93
2022-08-19T22:16:33.121Z,10.05
2022-08-19T22:19:01.252Z,9.73
2022-08-19T22:21:40.538Z,10.02
2022-08-19T22:24:10.928Z,10.70
2022-08-19T22:26:39.467Z,10.38
2022-08-19T22:29:08.320Z,9.80
2022-08-19T22:31:38.014Z,10.02
2022-08-19T22:34:06.618Z,9.43
2022-08-19T22:36:35.591Z,10.38
2022-08-19T22:39:05.626Z,10.65
2022-08-19T22:41:35.129Z,9.20
2022-08-19T22:44:04.325Z,9.45
2022-08-19T22:46:33.687Z,10.15
2022-08-19T22:49:02.297Z,10.70
2022-08-19T22:51:48.233Z,9.88
2022-08-19T22:54:17.038Z,10.82
2022-08-19T22:56:46.661Z,10.35
2022-08-19T22:59:15.246Z,9.98
2022-08-19T23:01:43.798Z,9.95
2022-08-19T23:04:12.225Z,9.27
2022-08-19T23:06:42.263Z,10.55
2022-08-19T23:09:16.783Z,9.70
2022-08-19T23:11:48.182Z,9.70
2022-08-19T23:14:18.125Z,10.38
2022-08-19T23:16:51.057Z,9.73
2022-08-19T23:19:20.878Z,10.15
2022-08-19T23:21:49.095Z,9.63
2022-08-19T23:24:17.685Z,10.50
2022-08-19T23:27:01.519Z,10.25
2022-08-19T23:29:48.594Z,10.40
2022-08-19T23:32:17.387Z,11.88
2022-08-19T23:34:45.628Z,10.35
2022-08-19T23:37:14.590Z,10.60
2022-08-19T23:39:44.594Z,10.55
2022-08-19T23:42:15.884Z,8.93
2022-08-19T23:44:51.476Z,8.98
2022-08-19T23:47:21.066Z,9.10
2022-08-19T23:49:49.629Z,9.10
2022-08-19T23:52:18.183Z,9.55
2022-08-19T23:54:46.333Z,8.90
2022-08-19T23:57:16.565Z,9.60
2022-08-19T23:59:46.147Z,9.40
